KAWO/AWO METAR and TAF weather

Enter ICAO airport designator
Station Type Date Time Source
KAWO METAR 2021/05/15 22:56 UTC NOAA

KAWO 152256Z AUTO 31009KT 10SM CLR 22/13 A3005 RMK AO2 SLP178 T02170128


Station Type Date Time Source
KAWO Decoded METAR 2021/05/15 22:56 UTC NOAA

Arlington Municipal, WA, United States (KAWO) 48-10N 122-10W
May 15, 2021 - 06:56 PM EDT / 2021.05.15 2256 UTC
Wind: from the NW (310 degrees) at 10 MPH (9 KT):0
Visibility: 10 mile(s):0
Sky conditions: clear
Temperature: 71.1 F (21.7 C)
Dew Point: 55.0 F (12.8 C)
Relative Humidity: 56%
Pressure (altimeter): 30.05 in. Hg (1017 hPa)
ob: KAWO 152256Z AUTO 31009KT 10SM CLR 22/13 A3005 RMK AO2 SLP178 T02170128
cycle: 23

Station Type Date Time Source
KAWO TAF UTC NOAA

Error!

Example: see airport list